createdAt,value
2023-05-25T00:01:44.041Z,3.57
2023-05-25T00:04:11.306Z,2.97
2023-05-25T00:06:41.438Z,4.10
2023-05-25T00:09:08.312Z,3.63
2023-05-25T00:11:35.081Z,4.53
2023-05-25T00:14:01.869Z,4.23
2023-05-25T00:16:28.825Z,3.60
2023-05-25T00:18:57.576Z,3.80
2023-05-25T00:21:25.910Z,3.33
2023-05-25T00:23:52.662Z,3.97
2023-05-25T00:26:19.421Z,4.03
2023-05-25T00:28:46.231Z,3.13
2023-05-25T00:31:13.348Z,3.50
2023-05-25T00:33:40.371Z,4.03
2023-05-25T00:36:08.784Z,4.83
2023-05-25T00:38:35.478Z,3.83
2023-05-25T00:41:02.278Z,3.97
2023-05-25T00:43:29.024Z,3.57
2023-05-25T00:45:56.236Z,4.60
2023-05-25T00:48:23.853Z,3.93
2023-05-25T00:51:00.108Z,3.60
2023-05-25T00:53:27.122Z,4.30
2023-05-25T00:56:16.647Z,3.90
2023-05-25T00:58:44.789Z,3.80
2023-05-25T01:01:12.894Z,4.73
2023-05-25T01:03:46.783Z,4.30
2023-05-25T01:06:17.091Z,4.50
2023-05-25T01:08:49.631Z,4.43
2023-05-25T01:11:19.812Z,4.43
2023-05-25T01:13:48.914Z,4.30
2023-05-25T01:16:16.907Z,4.50
2023-05-25T01:18:43.650Z,5.80
2023-05-25T01:21:18.128Z,5.10
2023-05-25T01:23:51.554Z,5.20
2023-05-25T01:26:20.763Z,5.13
2023-05-25T01:28:51.626Z,6.20
2023-05-25T01:31:21.977Z,6.07
2023-05-25T01:33:51.736Z,6.00
2023-05-25T01:36:19.668Z,5.80
2023-05-25T01:38:46.630Z,6.47
2023-05-25T01:41:13.629Z,7.33
2023-05-25T01:43:41.223Z,6.77
2023-05-25T01:46:30.940Z,6.00
2023-05-25T01:49:09.678Z,7.57
2023-05-25T01:51:43.907Z,8.27
2023-05-25T01:54:39.036Z,7.57
2023-05-25T01:57:12.776Z,9.27
2023-05-25T01:59:46.855Z,11.13
2023-05-25T02:02:18.964Z,10.20
2023-05-25T02:04:46.359Z,10.67
2023-05-25T02:07:13.284Z,11.60
2023-05-25T02:09:40.150Z,11.13
2023-05-25T02:12:07.124Z,12.70
2023-05-25T02:14:33.855Z,11.57
2023-05-25T02:17:02.160Z,10.17
2023-05-25T02:19:29.409Z,11.63
2023-05-25T02:21:56.352Z,10.00
2023-05-25T02:24:24.924Z,11.00
2023-05-25T02:26:51.831Z,11.63
2023-05-25T02:29:18.643Z,11.23
2023-05-25T02:31:45.606Z,10.20
2023-05-25T02:34:13.840Z,10.70
2023-05-25T02:36:43.554Z,11.73
2023-05-25T02:39:11.032Z,11.13
2023-05-25T02:41:38.575Z,10.03
2023-05-25T02:44:06.138Z,9.90
2023-05-25T02:46:33.801Z,10.87
2023-05-25T02:49:01.080Z,9.47
2023-05-25T02:51:28.883Z,8.97
2023-05-25T02:53:55.605Z,11.70
2023-05-25T02:56:25.111Z,10.67
2023-05-25T02:58:51.849Z,10.47
2023-05-25T03:01:19.271Z,9.67
2023-05-25T03:03:53.222Z,9.30
2023-05-25T03:06:21.693Z,9.80
2023-05-25T03:08:48.903Z,11.40
2023-05-25T03:11:15.847Z,8.93
2023-05-25T03:13:42.622Z,9.50
2023-05-25T03:16:09.400Z,9.00
2023-05-25T03:18:36.300Z,10.30
2023-05-25T03:21:03.032Z,10.40
2023-05-25T03:23:29.735Z,9.50
2023-05-25T03:25:56.631Z,9.67
2023-05-25T03:28:23.444Z,9.20
2023-05-25T03:30:50.413Z,9.57
2023-05-25T03:33:17.128Z,10.23
2023-05-25T03:35:43.956Z,8.30
2023-05-25T03:38:10.931Z,8.93
2023-05-25T03:40:37.649Z,8.83
2023-05-25T03:43:04.350Z,8.47
2023-05-25T03:45:31.318Z,9.73
2023-05-25T03:47:58.227Z,8.37
2023-05-25T03:50:25.015Z,8.53
2023-05-25T03:52:51.796Z,8.10
2023-05-25T03:55:18.562Z,9.47
2023-05-25T03:57:45.967Z,9.40
2023-05-25T04:00:13.407Z,8.80
2023-05-25T04:02:40.315Z,8.43
2023-05-25T04:05:07.350Z,8.97
2023-05-25T04:07:37.027Z,9.40
2023-05-25T04:10:04.786Z,9.20
2023-05-25T04:12:32.406Z,9.60
2023-05-25T04:14:59.402Z,9.10
2023-05-25T04:17:26.287Z,10.00
2023-05-25T04:19:53.220Z,8.80
2023-05-25T04:22:19.971Z,9.30
2023-05-25T04:24:46.812Z,9.00
2023-05-25T04:27:14.463Z,10.00
2023-05-25T04:29:42.062Z,9.40
2023-05-25T04:32:09.676Z,7.93
2023-05-25T04:34:36.768Z,8.93
2023-05-25T04:37:05.605Z,9.00
2023-05-25T04:39:33.110Z,9.00
2023-05-25T04:42:04.523Z,8.63
2023-05-25T04:44:35.076Z,9.10
2023-05-25T04:47:02.482Z,10.93
2023-05-25T04:49:29.251Z,9.50
2023-05-25T04:51:56.015Z,9.30
2023-05-25T04:54:22.777Z,10.23
2023-05-25T04:56:49.663Z,9.57
2023-05-25T04:59:16.946Z,9.43
2023-05-25T05:01:44.538Z,9.10
2023-05-25T05:04:11.626Z,8.70
2023-05-25T05:06:38.787Z,9.20
2023-05-25T05:09:05.712Z,8.37
2023-05-25T05:11:32.487Z,8.53
2023-05-25T05:13:59.335Z,9.17
2023-05-25T05:16:26.365Z,9.90
2023-05-25T05:18:53.439Z,8.50
2023-05-25T05:21:21.543Z,8.20
2023-05-25T05:23:50.157Z,7.37
2023-05-25T05:26:16.949Z,8.37
2023-05-25T05:28:43.655Z,8.80
2023-05-25T05:31:12.216Z,8.80
2023-05-25T05:33:39.559Z,8.60
2023-05-25T05:36:06.629Z,7.60
2023-05-25T05:38:33.348Z,8.07
2023-05-25T05:41:00.207Z,8.80
2023-05-25T05:43:27.023Z,8.50
2023-05-25T05:45:53.782Z,8.03
2023-05-25T05:48:20.925Z,8.90
2023-05-25T05:50:48.066Z,8.80
2023-05-25T05:53:15.659Z,9.40
2023-05-25T05:55:42.605Z,8.40
2023-05-25T05:58:09.554Z,9.53
2023-05-25T06:00:36.510Z,9.03
2023-05-25T06:03:03.418Z,8.67
2023-05-25T06:05:30.312Z,9.40
2023-05-25T06:07:57.075Z,9.37
2023-05-25T06:10:23.797Z,8.63
2023-05-25T06:12:50.730Z,10.23
2023-05-25T06:15:17.529Z,8.90
2023-05-25T06:17:44.363Z,9.60
2023-05-25T06:20:11.420Z,9.20
2023-05-25T06:22:38.315Z,9.83
2023-05-25T06:25:06.325Z,9.43
2023-05-25T06:27:33.266Z,10.00
2023-05-25T06:29:59.955Z,9.23
2023-05-25T06:32:26.708Z,9.73
2023-05-25T06:34:53.405Z,10.83
2023-05-25T06:37:20.256Z,9.87
2023-05-25T06:39:47.068Z,10.00
2023-05-25T06:42:13.763Z,8.90
2023-05-25T06:44:40.704Z,9.47
2023-05-25T06:47:07.527Z,8.40
2023-05-25T06:49:34.321Z,8.93
2023-05-25T06:52:01.071Z,10.90
2023-05-25T06:54:27.780Z,9.40
2023-05-25T06:56:54.633Z,10.57
2023-05-25T06:59:21.364Z,9.67
2023-05-25T07:01:48.600Z,8.80
2023-05-25T07:04:15.492Z,9.80
2023-05-25T07:06:42.331Z,10.57
2023-05-25T07:09:09.089Z,9.03
2023-05-25T07:11:35.840Z,10.10
2023-05-25T07:14:02.528Z,9.40
2023-05-25T07:16:29.332Z,9.97
2023-05-25T07:18:57.144Z,9.37
2023-05-25T07:21:25.656Z,9.20
2023-05-25T07:23:52.629Z,10.20
2023-05-25T07:26:22.934Z,11.10
2023-05-25T07:28:49.741Z,11.67
2023-05-25T07:31:16.809Z,11.40
2023-05-25T07:33:43.912Z,10.03
2023-05-25T07:36:10.959Z,10.10
2023-05-25T07:38:37.846Z,10.50
2023-05-25T07:41:04.601Z,10.67
2023-05-25T07:43:31.637Z,9.90
2023-05-25T07:45:58.543Z,9.50
2023-05-25T07:48:25.270Z,10.20
2023-05-25T07:50:52.502Z,10.03
2023-05-25T07:53:19.410Z,9.33
2023-05-25T07:55:46.533Z,8.63
2023-05-25T07:58:13.647Z,9.10
2023-05-25T08:00:40.393Z,9.73
2023-05-25T08:03:07.731Z,10.20
2023-05-25T08:05:34.648Z,8.93
2023-05-25T08:08:01.584Z,9.10
2023-05-25T08:10:32.097Z,9.53
2023-05-25T08:12:59.472Z,9.63
2023-05-25T08:15:26.542Z,9.60
2023-05-25T08:17:53.466Z,9.50
2023-05-25T08:20:20.395Z,9.97
2023-05-25T08:22:47.257Z,9.10
2023-05-25T08:25:14.114Z,9.30
2023-05-25T08:27:40.998Z,9.03
2023-05-25T08:30:08.232Z,8.30
2023-05-25T08:32:35.058Z,9.43
2023-05-25T08:35:04.573Z,8.70
2023-05-25T08:37:34.338Z,9.13
2023-05-25T08:40:02.806Z,8.80
2023-05-25T08:42:30.085Z,8.40
2023-05-25T08:44:56.967Z,8.87
2023-05-25T08:47:24.125Z,8.47
2023-05-25T08:49:52.818Z,8.80
2023-05-25T08:52:24.174Z,9.13
2023-05-25T08:54:53.607Z,8.80
2023-05-25T08:57:52.248Z,9.27
2023-05-25T09:00:23.086Z,8.67
2023-05-25T09:03:19.712Z,8.97
2023-05-25T09:05:47.345Z,9.80
2023-05-25T09:08:14.621Z,9.50
2023-05-25T09:10:42.098Z,10.30
2023-05-25T09:13:21.503Z,9.07
2023-05-25T09:15:50.760Z,11.23
2023-05-25T09:18:17.620Z,9.20
2023-05-25T09:20:46.249Z,9.53
2023-05-25T09:23:17.858Z,10.20
2023-05-25T09:25:46.111Z,9.67
2023-05-25T09:28:26.471Z,9.40
2023-05-25T09:30:54.579Z,10.00
2023-05-25T09:33:21.681Z,9.40
2023-05-25T09:35:49.092Z,9.63
2023-05-25T09:38:19.451Z,9.40
2023-05-25T09:40:46.598Z,9.97
2023-05-25T09:43:22.003Z,10.40
2023-05-25T09:45:55.896Z,10.97
2023-05-25T09:48:24.248Z,9.70
2023-05-25T09:50:51.722Z,10.40
2023-05-25T09:53:19.010Z,10.20
2023-05-25T09:55:53.706Z,9.87
2023-05-25T09:58:24.938Z,9.13
2023-05-25T10:00:54.711Z,9.93
2023-05-25T10:03:21.802Z,9.57
2023-05-25T10:05:49.207Z,9.17
2023-05-25T10:08:20.057Z,10.27
2023-05-25T10:10:49.934Z,8.33
2023-05-25T10:13:20.806Z,9.13
2023-05-25T10:15:48.772Z,11.57
2023-05-25T10:18:17.161Z,11.07
2023-05-25T10:20:45.803Z,10.00
2023-05-25T10:23:16.805Z,9.90
2023-05-25T10:25:46.978Z,9.70
2023-05-25T10:28:29.722Z,9.43
2023-05-25T10:30:58.952Z,9.33
2023-05-25T10:33:26.384Z,9.00
2023-05-25T10:36:03.042Z,9.43
2023-05-25T10:38:39.477Z,8.80
2023-05-25T10:41:09.256Z,8.43
2023-05-25T10:43:37.036Z,8.93
2023-05-25T10:46:06.475Z,7.87
2023-05-25T10:48:40.559Z,6.87
2023-05-25T10:51:10.153Z,7.83
2023-05-25T10:53:40.354Z,8.20
2023-05-25T10:56:10.667Z,8.40
2023-05-25T10:58:42.705Z,8.80
2023-05-25T11:01:12.428Z,7.20
2023-05-25T11:03:49.395Z,6.97
2023-05-25T11:06:21.901Z,7.30
2023-05-25T11:08:59.441Z,7.10
2023-05-25T11:11:47.218Z,7.57
2023-05-25T11:14:28.071Z,7.27
2023-05-25T11:17:15.703Z,6.83
2023-05-25T11:19:56.322Z,6.87
2023-05-25T11:22:31.072Z,6.10
2023-05-25T11:24:59.513Z,6.60
2023-05-25T11:27:30.653Z,6.30
2023-05-25T11:29:58.614Z,6.93
2023-05-25T11:32:26.783Z,7.43
2023-05-25T11:34:54.558Z,6.50
2023-05-25T11:37:24.764Z,5.43
2023-05-25T11:39:52.717Z,6.83
2023-05-25T11:42:24.518Z,6.77
2023-05-25T11:44:51.904Z,6.40
2023-05-25T11:47:23.084Z,6.27
2023-05-25T11:49:50.597Z,7.20
2023-05-25T11:52:18.834Z,5.83
2023-05-25T11:54:46.430Z,6.27
2023-05-25T11:57:15.651Z,6.10
2023-05-25T11:59:52.140Z,6.80
2023-05-25T12:02:19.502Z,7.03
2023-05-25T12:04:57.074Z,7.40
2023-05-25T12:07:26.191Z,6.20
2023-05-25T12:10:04.393Z,6.20
2023-05-25T12:12:58.426Z,6.60
2023-05-25T12:15:26.388Z,6.90
2023-05-25T12:17:54.696Z,6.10
2023-05-25T12:20:21.992Z,7.57
2023-05-25T12:22:49.227Z,7.80
2023-05-25T12:25:21.231Z,6.93
2023-05-25T12:27:48.065Z,6.70
2023-05-25T12:30:14.874Z,6.10
2023-05-25T12:32:55.546Z,6.77
2023-05-25T12:35:22.634Z,5.20
2023-05-25T12:37:49.327Z,7.30
2023-05-25T12:40:24.681Z,6.67
2023-05-25T12:42:57.638Z,5.90
2023-05-25T12:45:24.778Z,7.40
2023-05-25T12:47:51.576Z,7.10
2023-05-25T12:50:19.679Z,6.90
2023-05-25T12:52:48.113Z,8.20
2023-05-25T12:55:21.063Z,8.27
2023-05-25T12:57:52.455Z,7.10
2023-05-25T13:00:27.191Z,7.20
2023-05-25T13:02:54.272Z,7.70
2023-05-25T13:05:21.862Z,7.00
2023-05-25T13:07:50.351Z,6.97
2023-05-25T13:10:18.076Z,7.00
2023-05-25T13:12:49.007Z,8.17
2023-05-25T13:15:18.830Z,6.73
2023-05-25T13:17:45.925Z,7.67
2023-05-25T13:20:16.441Z,7.40
2023-05-25T13:22:44.948Z,8.07
2023-05-25T13:25:13.568Z,6.57
2023-05-25T13:27:51.892Z,7.00
2023-05-25T13:30:20.820Z,6.63
2023-05-25T13:32:50.382Z,6.83
2023-05-25T13:35:22.800Z,6.73
2023-05-25T13:37:49.656Z,7.13
2023-05-25T13:40:16.640Z,6.97
2023-05-25T13:42:43.713Z,7.20
2023-05-25T13:45:11.133Z,7.40
2023-05-25T13:47:38.027Z,8.07
2023-05-25T13:50:05.433Z,6.13
2023-05-25T13:52:32.367Z,7.10
2023-05-25T13:54:59.149Z,7.20
2023-05-25T13:57:25.985Z,6.73
2023-05-25T13:59:52.726Z,6.47
2023-05-25T14:02:19.545Z,8.23
2023-05-25T14:04:46.306Z,7.10
2023-05-25T14:07:13.178Z,6.00
2023-05-25T14:09:39.866Z,6.63
2023-05-25T14:12:06.926Z,7.00
2023-05-25T14:14:33.839Z,5.97
2023-05-25T14:17:01.357Z,5.00
2023-05-25T14:19:28.609Z,6.20
2023-05-25T14:24:25.115Z,6.60
2023-05-25T14:26:51.932Z,6.70
2023-05-25T14:29:18.703Z,5.13
2023-05-25T14:31:46.227Z,5.73
2023-05-25T14:34:12.997Z,5.80
2023-05-25T14:36:40.081Z,5.90
2023-05-25T14:39:06.824Z,6.40
2023-05-25T14:41:33.659Z,6.57
2023-05-25T14:44:00.344Z,5.13
2023-05-25T14:46:27.188Z,5.50
2023-05-25T14:48:54.212Z,6.63
2023-05-25T14:51:20.955Z,4.87
2023-05-25T14:53:47.677Z,5.93
2023-05-25T14:56:14.449Z,5.30
2023-05-25T14:58:41.417Z,4.97
2023-05-25T15:01:08.078Z,6.50
2023-05-25T15:03:34.898Z,4.73
2023-05-25T15:06:01.699Z,5.80
2023-05-25T15:08:28.485Z,5.90
2023-05-25T15:10:55.272Z,5.77
2023-05-25T15:13:22.688Z,6.60
2023-05-25T15:15:52.054Z,6.60
2023-05-25T15:18:18.897Z,6.57
2023-05-25T15:20:45.760Z,6.30
2023-05-25T15:23:12.603Z,5.30
2023-05-25T15:25:39.334Z,4.80
2023-05-25T15:28:06.802Z,5.57
2023-05-25T15:30:34.520Z,5.43
2023-05-25T15:33:02.132Z,6.03
2023-05-25T15:35:32.257Z,6.27
2023-05-25T15:37:59.639Z,5.63
2023-05-25T15:40:26.521Z,6.03
2023-05-25T15:42:53.352Z,5.80
2023-05-25T15:45:20.057Z,7.30
2023-05-25T15:47:46.866Z,5.47
2023-05-25T15:50:13.629Z,7.70
2023-05-25T15:52:41.557Z,5.30
2023-05-25T15:55:08.987Z,6.17
2023-05-25T15:57:35.940Z,5.67
2023-05-25T16:00:02.667Z,4.10
2023-05-25T16:02:29.375Z,5.40
2023-05-25T16:04:56.334Z,5.60
2023-05-25T16:07:23.201Z,3.63
2023-05-25T16:09:49.976Z,5.00
2023-05-25T16:12:16.709Z,5.00
2023-05-25T16:14:43.992Z,7.17
2023-05-25T16:17:11.632Z,4.63
2023-05-25T16:19:38.341Z,4.87
2023-05-25T16:22:05.178Z,5.03
2023-05-25T16:24:31.928Z,3.80
2023-05-25T16:26:58.801Z,5.07
2023-05-25T16:29:25.769Z,5.10
2023-05-25T16:31:54.641Z,5.03
2023-05-25T16:34:22.377Z,4.27
2023-05-25T16:36:49.097Z,4.30
2023-05-25T16:39:15.894Z,5.47
2023-05-25T16:41:42.585Z,4.13
2023-05-25T16:44:11.385Z,3.30
2023-05-25T16:46:38.527Z,4.10
2023-05-25T16:49:05.876Z,4.60
2023-05-25T16:51:32.611Z,5.03
2023-05-25T16:53:59.306Z,3.90
2023-05-25T16:56:26.285Z,5.03
2023-05-25T16:58:53.075Z,5.17
2023-05-25T17:01:19.819Z,4.40
2023-05-25T17:03:46.707Z,4.37
2023-05-25T17:06:13.756Z,4.30
2023-05-25T17:08:40.538Z,4.53
2023-05-25T17:11:07.275Z,5.10
2023-05-25T17:13:34.350Z,4.57
2023-05-25T17:16:01.389Z,4.20
2023-05-25T17:18:28.624Z,4.67
2023-05-25T17:20:55.500Z,4.17
2023-05-25T17:23:22.766Z,4.83
2023-05-25T17:25:49.575Z,5.00
2023-05-25T17:28:16.323Z,3.67
2023-05-25T17:30:43.109Z,4.00
2023-05-25T17:33:09.870Z,4.13
2023-05-25T17:35:36.659Z,3.77
2023-05-25T17:38:03.489Z,3.67
2023-05-25T17:40:30.288Z,3.70
2023-05-25T17:42:56.972Z,3.93
2023-05-25T17:45:23.762Z,4.30
2023-05-25T17:47:50.534Z,3.80
2023-05-25T17:50:17.369Z,3.30
2023-05-25T17:52:44.137Z,4.23
2023-05-25T17:55:10.859Z,4.60
2023-05-25T17:57:37.584Z,4.60
2023-05-25T18:00:04.870Z,5.30
2023-05-25T18:02:31.908Z,4.60
2023-05-25T18:04:58.774Z,5.07
2023-05-25T18:07:25.747Z,4.03
2023-05-25T18:09:52.568Z,4.07
2023-05-25T18:12:19.279Z,4.00
2023-05-25T18:14:46.010Z,4.17
2023-05-25T18:17:12.795Z,3.43
2023-05-25T18:19:39.666Z,3.93
2023-05-25T18:22:06.415Z,4.20
2023-05-25T18:24:33.166Z,4.47
2023-05-25T18:27:03.657Z,3.87
2023-05-25T18:29:31.186Z,4.70
2023-05-25T18:31:57.972Z,4.03
2023-05-25T18:34:25.006Z,5.03
2023-05-25T18:36:51.806Z,3.90
2023-05-25T18:39:18.594Z,4.30
2023-05-25T18:41:45.436Z,4.27
2023-05-25T18:44:12.238Z,4.20
2023-05-25T18:46:41.057Z,4.97
2023-05-25T18:49:07.985Z,3.33
2023-05-25T18:51:34.831Z,4.90
2023-05-25T18:54:01.614Z,4.03
2023-05-25T18:56:28.295Z,4.20
2023-05-25T18:58:57.024Z,3.80
2023-05-25T19:01:25.526Z,5.40
2023-05-25T19:03:52.454Z,5.10
2023-05-25T19:06:19.336Z,4.73
2023-05-25T19:08:46.402Z,4.67
2023-05-25T19:11:14.375Z,4.37
2023-05-25T19:13:41.125Z,5.47
2023-05-25T19:16:08.588Z,5.30
2023-05-25T19:18:35.502Z,5.03
2023-05-25T19:21:02.777Z,5.80
2023-05-25T19:23:29.583Z,4.97
2023-05-25T19:25:56.345Z,5.77
2023-05-25T19:28:23.282Z,5.10
2023-05-25T19:30:49.988Z,5.80
2023-05-25T19:33:16.751Z,6.10
2023-05-25T19:35:43.994Z,4.80
2023-05-25T19:38:11.921Z,6.27
2023-05-25T19:40:38.764Z,4.53
2023-05-25T19:43:05.743Z,5.67
2023-05-25T19:45:32.608Z,4.97
2023-05-25T19:47:59.412Z,4.87
2023-05-25T19:50:30.409Z,4.47
2023-05-25T19:52:58.656Z,5.80
2023-05-25T19:55:25.697Z,6.17
2023-05-25T19:57:53.245Z,5.03
2023-05-25T20:00:26.448Z,5.50
2023-05-25T20:02:54.011Z,6.23
2023-05-25T20:05:20.970Z,6.27
2023-05-25T20:07:47.938Z,5.80
2023-05-25T20:10:14.667Z,5.90
2023-05-25T20:12:41.522Z,6.30
2023-05-25T20:15:08.916Z,7.13
2023-05-25T20:17:35.825Z,6.30
2023-05-25T20:20:05.077Z,6.47
2023-05-25T20:22:33.024Z,6.50
2023-05-25T20:25:00.860Z,5.57
2023-05-25T20:27:27.835Z,6.07
2023-05-25T20:29:55.003Z,6.20
2023-05-25T20:32:21.896Z,6.60
2023-05-25T20:34:48.686Z,6.20
2023-05-25T20:37:15.571Z,5.53
2023-05-25T20:39:42.370Z,6.10
2023-05-25T20:42:10.147Z,6.00
2023-05-25T20:44:37.045Z,6.43
2023-05-25T20:47:04.186Z,6.67
2023-05-25T20:49:31.298Z,6.50
2023-05-25T20:51:58.104Z,6.70
2023-05-25T20:54:24.960Z,6.97
2023-05-25T20:56:51.811Z,6.50
2023-05-25T20:59:18.666Z,7.20
2023-05-25T21:01:45.589Z,7.20
2023-05-25T21:04:12.734Z,7.07
2023-05-25T21:06:39.914Z,6.40
2023-05-25T21:09:06.640Z,6.20
2023-05-25T21:11:33.524Z,7.00
2023-05-25T21:14:00.388Z,7.67
2023-05-25T21:16:27.329Z,7.37
2023-05-25T21:18:54.076Z,5.80
2023-05-25T21:21:20.992Z,7.00
2023-05-25T21:23:47.819Z,6.40
2023-05-25T21:26:14.584Z,7.00
2023-05-25T21:28:41.495Z,6.50
2023-05-25T21:31:08.602Z,7.83
2023-05-25T21:33:36.842Z,7.97
2023-05-25T21:36:03.930Z,7.70
2023-05-25T21:38:30.760Z,8.43
2023-05-25T21:40:58.646Z,7.60
2023-05-25T21:43:27.241Z,7.97
2023-05-25T21:45:54.082Z,9.30
2023-05-25T21:48:22.400Z,7.70
2023-05-25T21:50:51.522Z,7.60
2023-05-25T21:53:21.922Z,7.37
2023-05-25T21:55:48.714Z,8.03
2023-05-25T21:58:17.761Z,8.27
2023-05-25T22:00:44.804Z,7.80
2023-05-25T22:03:11.706Z,8.53
2023-05-25T22:05:38.822Z,7.73
2023-05-25T22:08:06.138Z,8.70
2023-05-25T22:10:32.983Z,8.30
2023-05-25T22:12:59.716Z,7.10
2023-05-25T22:15:26.828Z,7.53
2023-05-25T22:17:56.181Z,7.33
2023-05-25T22:20:23.043Z,8.67
2023-05-25T22:22:49.933Z,8.73
2023-05-25T22:25:16.825Z,8.17
2023-05-25T22:27:43.529Z,8.63
2023-05-25T22:30:10.837Z,9.40
2023-05-25T22:32:37.602Z,8.30
2023-05-25T22:35:04.627Z,8.67
2023-05-25T22:37:31.477Z,9.60
2023-05-25T22:39:58.249Z,9.10
2023-05-25T22:42:25.072Z,8.73
2023-05-25T22:44:51.798Z,9.33
2023-05-25T22:47:18.671Z,8.20
2023-05-25T22:49:45.610Z,7.90
2023-05-25T22:52:12.574Z,8.50
2023-05-25T22:54:39.765Z,8.20
2023-05-25T22:57:08.587Z,8.77
2023-05-25T22:59:35.691Z,7.40
2023-05-25T23:02:02.648Z,8.47
2023-05-25T23:04:29.510Z,7.50
2023-05-25T23:06:56.241Z,8.70
2023-05-25T23:09:23.134Z,8.30
2023-05-25T23:11:49.974Z,8.00
2023-05-25T23:14:16.732Z,8.57
2023-05-25T23:16:44.513Z,8.10
2023-05-25T23:19:11.393Z,8.50
2023-05-25T23:21:38.160Z,7.80
2023-05-25T23:24:05.153Z,8.60
2023-05-25T23:26:31.834Z,7.27
2023-05-25T23:28:58.597Z,8.47
2023-05-25T23:31:25.668Z,7.43
2023-05-25T23:33:53.329Z,8.63
2023-05-25T23:36:20.797Z,8.00
2023-05-25T23:38:47.527Z,7.67
2023-05-25T23:41:15.978Z,7.70
2023-05-25T23:43:42.730Z,8.37
2023-05-25T23:46:09.605Z,7.80
2023-05-25T23:48:36.424Z,8.37
2023-05-25T23:51:04.026Z,8.07
2023-05-25T23:53:31.063Z,8.40
2023-05-25T23:55:57.816Z,8.43
2023-05-25T23:58:24.586Z,7.87
